Time;durP1;ratioP1;P1;durP2;ratioP2;P2;SDS_P1;SDS_P2;PMS_P1;PMS_P2;Temp;Humidity;BMP_temperature;BMP_pressure;BME280_temperature;BME280_humidity;BME280_pressure;Samples;Min_cycle;Max_cycle;Signal;HPM_P1;HPM_P2
2022/09/27 00:02:14;;;;;;;8.40;6.90;;;;;;;9.23;100.00;95475.36;108245;1270;22862;-80
2022/09/27 00:04:46;;;;;;;7.40;5.60;;;;;;;9.25;100.00;95477.61;108296;1270;22841;-80
2022/09/27 00:07:19;;;;;;;7.70;6.00;;;;;;;9.23;100.00;95473.67;108313;1270;25927;-81
2022/09/27 00:09:51;;;;;;;9.40;6.50;;;;;;;9.22;100.00;95467.63;108222;1269;31349;-80
2022/09/27 00:12:22;;;;;;;8.60;7.30;;;;;;;9.22;100.00;95464.88;108258;1270;22608;-81
2022/09/27 00:14:53;;;;;;;6.40;5.80;;;;;;;9.19;100.00;95461.55;108269;1270;22817;-80
2022/09/27 00:17:26;;;;;;;9.60;6.50;;;;;;;9.19;100.00;95462.52;108155;1270;24220;-80
2022/09/27 00:19:58;;;;;;;7.10;6.00;;;;;;;9.22;100.00;95458.15;108083;1270;30688;-80
2022/09/27 00:22:30;;;;;;;7.10;6.00;;;;;;;9.23;100.00;95457.06;108301;1270;23904;-80
2022/09/27 00:25:04;;;;;;;7.40;5.50;;;;;;;9.20;100.00;95449.89;108216;1270;24250;-80
2022/09/27 00:27:35;;;;;;;8.30;5.50;;;;;;;9.16;100.00;95446.39;108263;1270;22559;-80
2022/09/27 00:30:08;;;;;;;7.40;6.00;;;;;;;9.07;100.00;95452.13;108219;1270;25370;-80
2022/09/27 00:32:40;;;;;;;8.80;6.50;;;;;;;9.00;100.00;95454.29;108355;1268;24266;-80
2022/09/27 00:35:11;;;;;;;8.20;6.10;;;;;;;8.96;100.00;95454.21;108337;1270;22556;-80
2022/09/27 00:37:42;;;;;;;6.90;6.20;;;;;;;8.96;100.00;95452.77;108284;1270;24238;-80
2022/09/27 00:40:14;;;;;;;7.10;5.70;;;;;;;8.93;100.00;95449.19;108191;1270;33318;-81
2022/09/27 00:42:45;;;;;;;6.20;5.60;;;;;;;8.91;100.00;95446.59;108299;1270;23818;-80
2022/09/27 00:45:18;;;;;;;6.80;5.60;;;;;;;8.90;100.00;95442.08;108316;1270;24269;-80
2022/09/27 00:47:54;;;;;;;5.90;5.10;;;;;;;8.88;100.00;95436.09;108197;1270;24277;-80
2022/09/27 00:50:36;;;;;;;6.60;5.60;;;;;;;8.85;100.00;95429.41;108315;1268;30772;-80
2022/09/27 00:53:14;;;;;;;6.50;5.70;;;;;;;8.85;100.00;95429.20;108283;1270;22537;-80
2022/09/27 00:55:52;;;;;;;6.50;5.80;;;;;;;8.86;100.00;95428.02;108284;1270;22551;-80
2022/09/27 00:58:26;;;;;;;6.20;5.60;;;;;;;8.85;100.00;95422.54;108244;1269;29318;-79
2022/09/27 01:01:02;;;;;;;7.80;6.20;;;;;;;8.83;100.00;95416.50;108282;1270;22651;-80
2022/09/27 01:03:39;;;;;;;7.60;6.10;;;;;;;8.84;100.00;95412.43;108298;1270;22557;-80
2022/09/27 01:06:11;;;;;;;6.60;5.60;;;;;;;8.91;100.00;95413.55;108301;1270;22541;-80
2022/09/27 01:08:42;;;;;;;7.20;6.30;;;;;;;8.94;100.00;95412.90;108223;1270;26543;-80
2022/09/27 01:11:22;;;;;;;7.20;5.90;;;;;;;8.94;100.00;95410.86;108268;1270;23239;-80
2022/09/27 01:14:05;;;;;;;6.90;5.90;;;;;;;8.91;100.00;95405.67;108253;1270;24189;-80
2022/09/27 01:16:46;;;;;;;7.00;6.30;;;;;;;8.89;100.00;95395.93;108263;1270;22554;-80
2022/09/27 01:19:35;;;;;;;7.90;5.70;;;;;;;8.91;100.00;95389.60;108117;1270;25729;-80
2022/09/27 01:22:13;;;;;;;7.70;5.60;;;;;;;8.87;100.00;95386.57;108218;1270;22541;-80
2022/09/27 01:25:01;;;;;;;7.40;6.50;;;;;;;8.85;100.00;95382.95;108204;1270;22729;-80
2022/09/27 01:28:03;;;;;;;7.10;5.80;;;;;;;8.82;100.00;95383.66;108213;1270;22648;-80
2022/09/27 01:30:41;;;;;;;7.80;5.90;;;;;;;8.81;100.00;95386.33;108198;1270;27031;-80
2022/09/27 01:33:30;;;;;;;7.90;6.20;;;;;;;8.80;100.00;95381.43;108323;1270;22549;-80
2022/09/27 01:36:27;;;;;;;6.30;5.70;;;;;;;8.80;100.00;95375.36;108290;1270;22580;-80
2022/09/27 01:39:17;;;;;;;6.50;5.50;;;;;;;8.73;100.00;95379.94;108180;1270;39690;-80
2022/09/27 01:42:00;;;;;;;7.60;5.60;;;;;;;8.67;100.00;95374.46;105868;1268;3257841;-80
2022/09/27 01:44:38;;;;;;;7.30;6.00;;;;;;;8.58;100.00;95375.70;108273;1270;22546;-80
2022/09/27 01:47:15;;;;;;;6.90;6.20;;;;;;;8.51;100.00;95375.05;108348;1268;22904;-80
2022/09/27 01:49:52;;;;;;;8.20;6.70;;;;;;;8.57;100.00;95375.94;108180;1270;34225;-80
2022/09/27 01:52:28;;;;;;;7.40;6.40;;;;;;;8.61;100.00;95375.16;108322;1270;22621;-80
2022/09/27 01:55:03;;;;;;;7.30;6.50;;;;;;;8.63;100.00;95377.04;108284;1270;25306;-80
2022/09/27 01:57:39;;;;;;;7.30;6.60;;;;;;;8.62;100.00;95377.01;108269;1270;23152;-80
2022/09/27 02:00:14;;;;;;;6.90;5.90;;;;;;;8.61;100.00;95373.80;108298;1270;24826;-80
2022/09/27 02:02:50;;;;;;;7.90;5.90;;;;;;;8.60;100.00;95374.19;108332;1270;23045;-80
2022/09/27 02:05:31;;;;;;;8.00;6.60;;;;;;;8.64;100.00;95369.46;108346;1270;25975;-80
2022/09/27 02:08:07;;;;;;;6.20;5.60;;;;;;;8.64;100.00;95365.23;108316;1270;22556;-80
2022/09/27 02:10:46;;;;;;;5.90;5.10;;;;;;;8.57;100.00;95360.81;108116;1270;34456;-80
2022/09/27 02:13:22;;;;;;;6.40;5.50;;;;;;;8.51;100.00;95357.61;108307;1270;23199;-80
2022/09/27 02:16:03;;;;;;;7.30;5.50;;;;;;;8.49;100.00;95362.31;108303;1270;22552;-80
2022/09/27 02:18:44;;;;;;;7.50;5.90;;;;;;;8.46;100.00;95364.13;108210;1270;31513;-79
2022/09/27 02:21:21;;;;;;;6.60;5.50;;;;;;;8.43;100.00;95361.05;108301;1270;25306;-80
2022/09/27 02:23:58;;;;;;;9.90;6.40;;;;;;;8.41;100.00;95359.62;108285;1270;25295;-80
2022/09/27 02:26:37;;;;;;;6.50;5.60;;;;;;;8.40;100.00;95359.91;108309;1271;22564;-80
2022/09/27 02:29:11;;;;;;;7.30;6.30;;;;;;;8.39;100.00;95357.98;108274;1270;34467;-80
2022/09/27 02:31:42;;;;;;;7.10;5.80;;;;;;;8.40;100.00;95355.72;108347;1269;22535;-80
2022/09/27 02:34:18;;;;;;;7.50;6.00;;;;;;;8.39;100.00;95354.31;108406;1268;22564;-80
2022/09/27 02:36:52;;;;;;;7.60;5.80;;;;;;;8.38;100.00;95352.50;108393;1267;24258;-80
2022/09/27 02:39:24;;;;;;;7.90;6.20;;;;;;;8.35;100.00;95343.10;108285;1268;28268;-80
2022/09/27 02:41:57;;;;;;;7.30;5.60;;;;;;;8.33;100.00;95332.50;108419;1267;22615;-80
2022/09/27 02:44:28;;;;;;;6.70;6.00;;;;;;;8.32;100.00;95329.61;108333;1270;22564;-80
2022/09/27 02:47:13;;;;;;;7.30;5.80;;;;;;;8.28;100.00;95327.39;108373;1268;22523;-80
2022/09/27 02:50:00;;;;;;;8.30;7.10;;;;;;;8.27;100.00;95317.90;108315;1267;26366;-80
2022/09/27 02:52:44;;;;;;;8.20;6.70;;;;;;;8.27;100.00;95312.53;108373;1268;24847;-80
2022/09/27 02:55:24;;;;;;;6.60;5.80;;;;;;;8.26;100.00;95316.34;108340;1270;22553;-80
2022/09/27 02:58:08;;;;;;;9.30;6.10;;;;;;;8.26;100.00;95318.10;108375;1268;25353;-80
2022/09/27 03:00:48;;;;;;;7.50;6.10;;;;;;;8.20;100.00;95316.16;108297;1267;40794;-80
2022/09/27 03:03:25;;;;;;;6.10;4.80;;;;;;;8.13;100.00;95311.55;108349;1270;22558;-80
2022/09/27 03:06:03;;;;;;;6.50;5.30;;;;;;;8.07;100.00;95315.11;108354;1268;25301;-80
2022/09/27 03:08:37;;;;;;;5.30;4.80;;;;;;;8.01;100.00;95316.20;108323;1267;28370;-79
2022/09/27 03:11:08;;;;;;;5.40;4.50;;;;;;;8.00;100.00;95312.53;108394;1267;22549;-80
2022/09/27 03:13:39;;;;;;;6.20;4.40;;;;;;;7.97;100.00;95310.17;108398;1268;22595;-80
2022/09/27 03:16:10;;;;;;;4.60;4.00;;;;;;;7.90;100.00;95313.27;108351;1269;22539;-80
2022/09/27 03:18:41;;;;;;;5.80;4.80;;;;;;;7.83;100.00;95312.86;108326;1268;33256;-79
2022/09/27 03:21:12;;;;;;;6.20;4.10;;;;;;;7.73;100.00;95315.88;108344;1269;24227;-80
2022/09/27 03:23:44;;;;;;;7.20;4.90;;;;;;;7.70;100.00;95316.19;108354;1271;22539;-80
2022/09/27 03:26:15;;;;;;;5.90;5.10;;;;;;;7.66;100.00;95322.29;108333;1268;22882;-80
2022/09/27 03:28:46;;;;;;;5.50;4.00;;;;;;;7.67;100.00;95322.69;108331;1268;27874;-79
2022/09/27 03:31:17;;;;;;;4.90;4.40;;;;;;;7.59;100.00;95319.88;108352;1271;22676;-79
2022/09/27 03:33:48;;;;;;;5.60;4.70;;;;;;;7.48;100.00;95319.54;108349;1271;22562;-80
2022/09/27 03:36:19;;;;;;;5.00;4.30;;;;;;;7.41;100.00;95320.02;108398;1268;25287;-79
2022/09/27 03:38:50;;;;;;;6.80;4.30;;;;;;;7.37;100.00;95318.77;108310;1267;24259;-79
2022/09/27 03:41:21;;;;;;;6.20;4.80;;;;;;;7.29;100.00;95315.09;108376;1267;25341;-79
2022/09/27 03:43:55;;;;;;;5.00;4.40;;;;;;;7.26;100.00;95310.23;108339;1269;22572;-80
2022/09/27 03:46:27;;;;;;;4.70;4.20;;;;;;;7.22;100.00;95311.96;108417;1268;24217;-79
2022/09/27 03:48:58;;;;;;;5.40;4.50;;;;;;;7.19;100.00;95311.95;108304;1268;30501;-79
2022/09/27 03:51:29;;;;;;;5.80;4.80;;;;;;;7.19;100.00;95306.06;108387;1268;22543;-80
2022/09/27 03:54:00;;;;;;;6.20;5.20;;;;;;;7.23;100.00;95307.66;108351;1268;22818;-80
2022/09/27 03:56:34;;;;;;;6.30;4.70;;;;;;;7.24;100.00;95316.89;108383;1268;24262;-80
2022/09/27 03:59:05;;;;;;;6.50;5.00;;;;;;;7.23;100.00;95312.05;108290;1268;54710;-80
2022/09/27 04:01:37;;;;;;;6.90;5.90;;;;;;;7.24;100.00;95309.45;108370;1268;23219;-80
2022/09/27 04:04:09;;;;;;;5.60;4.50;;;;;;;7.27;100.00;95306.23;108359;1271;22545;-79
2022/09/27 04:06:41;;;;;;;7.50;5.90;;;;;;;7.31;100.00;95303.73;108398;1268;23275;-79
2022/09/27 04:09:12;;;;;;;7.80;6.10;;;;;;;7.35;100.00;95305.20;108307;1268;31573;-80
2022/09/27 04:11:43;;;;;;;8.80;6.90;;;;;;;7.34;100.00;95303.96;108401;1268;22523;-80
2022/09/27 04:14:14;;;;;;;7.50;5.80;;;;;;;7.32;100.00;95301.09;108379;1268;25127;-80
2022/09/27 04:16:46;;;;;;;6.70;5.90;;;;;;;7.27;100.00;95297.48;108387;1268;22637;-80
2022/09/27 04:19:17;;;;;;;8.70;7.00;;;;;;;7.25;100.00;95299.63;108276;1268;24952;-79
2022/09/27 04:21:48;;;;;;;7.30;6.00;;;;;;;7.24;100.00;95290.37;108365;1268;23852;-80
2022/09/27 04:24:19;;;;;;;6.30;5.20;;;;;;;7.25;100.00;95286.70;108381;1268;22523;-80
2022/09/27 04:26:51;;;;;;;7.80;6.40;;;;;;;7.28;100.00;95280.44;108370;1268;22544;-79
2022/09/27 04:29:22;;;;;;;8.50;6.80;;;;;;;7.25;100.00;95280.65;108310;1268;24413;-80
2022/09/27 04:31:54;;;;;;;7.30;6.20;;;;;;;7.22;100.00;95279.22;108378;1268;22569;-79
2022/09/27 04:37:11;;;;;;;8.20;6.30;;;;;;;7.23;100.00;95281.89;108356;1268;22606;-80
2022/09/27 04:39:42;;;;;;;7.50;5.70;;;;;;;7.26;100.00;95276.66;108251;1268;29452;-80
2022/09/27 04:42:25;;;;;;;6.30;5.40;;;;;;;7.27;100.00;95274.28;108310;1269;22542;-80
2022/09/27 04:44:56;;;;;;;6.40;5.70;;;;;;;7.35;100.00;95271.67;108302;1270;22654;-80
2022/09/27 04:47:27;;;;;;;6.30;5.10;;;;;;;7.54;100.00;95274.71;108323;1270;22542;-80
2022/09/27 04:49:59;;;;;;;5.00;4.50;;;;;;;7.87;100.00;95275.36;108199;1271;38765;-80
2022/09/27 04:52:31;;;;;;;5.90;5.30;;;;;;;8.25;100.00;95276.95;108246;1270;25120;-80
2022/09/27 04:55:02;;;;;;;6.20;4.90;;;;;;;8.61;100.00;95275.85;108263;1271;22582;-80
2022/09/27 04:57:34;;;;;;;5.80;5.20;;;;;;;9.09;100.00;95277.97;108311;1271;24204;-80
2022/09/27 05:00:07;;;;;;;6.30;5.70;;;;;;;9.44;100.00;95269.23;108213;1271;28026;-80
2022/09/27 05:02:39;;;;;;;5.70;5.10;;;;;;;9.70;100.00;95264.17;108199;1271;22555;-80
2022/09/27 05:05:11;;;;;;;5.00;4.50;;;;;;;9.91;100.00;95259.44;108266;1271;24247;-79
2022/09/27 05:07:44;;;;;;;5.30;4.50;;;;;;;9.69;99.84;95256.27;108208;1271;24244;-80
2022/09/27 05:10:15;;;;;;;4.70;4.30;;;;;;;9.29;99.76;95252.73;108174;1271;31536;-79
2022/09/27 05:12:46;;;;;;;4.70;3.70;;;;;;;8.76;99.84;95247.60;108240;1270;24077;-79
2022/09/27 05:15:20;;;;;;;5.90;4.20;;;;;;;8.50;100.00;95239.16;108235;1271;22555;-80
2022/09/27 05:17:53;;;;;;;4.80;3.50;;;;;;;8.41;100.00;95237.14;108160;1271;22624;-80
2022/09/27 05:20:25;;;;;;;4.30;3.40;;;;;;;8.34;100.00;95237.08;108226;1271;23178;-80
2022/09/27 05:22:56;;;;;;;3.90;3.50;;;;;;;8.35;100.00;95238.00;108238;1270;24263;-79
2022/09/27 05:25:27;;;;;;;4.60;4.00;;;;;;;8.32;100.00;95239.36;108280;1270;22666;-79
2022/09/27 05:28:00;;;;;;;4.80;4.20;;;;;;;8.27;100.00;95243.41;108223;1271;25254;-79
2022/09/27 05:30:31;;;;;;;6.90;4.80;;;;;;;8.24;100.00;95245.70;108084;1271;29827;-79
2022/09/27 05:33:02;;;;;;;7.60;5.40;;;;;;;8.29;100.00;95243.69;108208;1270;22542;-79
2022/09/27 05:35:34;;;;;;;6.90;5.90;;;;;;;8.52;100.00;95240.06;108227;1271;22555;-79
2022/09/27 05:38:05;;;;;;;6.50;5.40;;;;;;;8.81;100.00;95241.27;108232;1271;23272;-79
2022/09/27 05:40:37;;;;;;;6.90;5.00;;;;;;;9.10;100.00;95235.33;108084;1271;32023;-80
2022/09/27 05:43:08;;;;;;;5.90;4.60;;;;;;;9.25;100.00;95232.24;108227;1271;22531;-80
2022/09/27 05:45:39;;;;;;;5.90;5.20;;;;;;;9.05;99.99;95228.89;108178;1271;22550;-79
2022/09/27 05:48:13;;;;;;;4.70;4.10;;;;;;;8.81;99.92;95229.26;108205;1271;24227;-80
2022/09/27 05:50:45;;;;;;;5.80;5.00;;;;;;;8.78;100.00;95227.52;108232;1268;23283;-79
2022/09/27 05:53:16;;;;;;;6.90;5.30;;;;;;;8.74;100.00;95220.08;108338;1268;22528;-79
2022/09/27 05:55:48;;;;;;;6.70;5.70;;;;;;;8.95;100.00;95218.66;108408;1268;22583;-79
2022/09/27 05:58:19;;;;;;;5.50;4.40;;;;;;;10.17;100.00;95212.52;108371;1268;22550;-79
2022/09/27 06:00:51;;;;;;;5.30;4.50;;;;;;;11.49;99.46;95212.95;108290;1268;22545;-80
2022/09/27 06:03:22;;;;;;;5.00;4.40;;;;;;;12.44;95.43;95212.55;108380;1268;22815;-81
2022/09/27 06:05:53;;;;;;;6.30;5.30;;;;;;;12.94;92.03;95221.27;108318;1268;22567;-81
2022/09/27 06:08:25;;;;;;;5.00;4.50;;;;;;;13.16;90.58;95215.43;108262;1268;40888;-79
2022/09/27 06:11:03;;;;;;;5.70;5.20;;;;;;;13.55;88.75;95218.34;108391;1268;22532;-81
2022/09/27 06:13:36;;;;;;;5.40;4.90;;;;;;;13.43;87.24;95218.63;108389;1268;22543;-80
2022/09/27 06:16:10;;;;;;;5.10;4.60;;;;;;;13.22;85.16;95221.10;108401;1267;22595;-81
2022/09/27 06:18:42;;;;;;;7.50;5.40;;;;;;;12.90;84.61;95218.91;108338;1268;26598;-81
2022/09/27 06:21:13;;;;;;;6.20;5.60;;;;;;;12.37;84.19;95220.50;108323;1268;24311;-81
2022/09/27 06:23:44;;;;;;;6.40;5.20;;;;;;;11.91;84.18;95221.70;108402;1268;24237;-81
2022/09/27 06:26:16;;;;;;;6.40;5.70;;;;;;;11.56;84.94;95220.26;108405;1268;22650;-81
2022/09/27 06:28:50;;;;;;;5.80;5.10;;;;;;;11.13;85.67;95220.34;108317;1268;25249;-81
2022/09/27 06:31:21;;;;;;;5.70;5.10;;;;;;;11.13;86.60;95218.36;108373;1268;22539;-81
2022/09/27 06:33:53;;;;;;;5.50;4.80;;;;;;;11.19;87.56;95215.65;108360;1268;22539;-80
2022/09/27 06:36:24;;;;;;;5.40;4.80;;;;;;;11.42;87.72;95214.46;108388;1268;23387;-80
2022/09/27 06:39:00;;;;;;;5.30;4.80;;;;;;;11.54;87.39;95217.09;108293;1268;33092;-81
2022/09/27 06:41:32;;;;;;;5.40;4.90;;;;;;;11.41;86.95;95220.40;108377;1268;22572;-81
2022/09/27 06:44:04;;;;;;;5.30;4.80;;;;;;;11.33;86.94;95224.73;108372;1268;22704;-81
2022/09/27 06:46:36;;;;;;;4.40;4.00;;;;;;;11.32;87.20;95216.27;108357;1268;24327;-80
2022/09/27 06:49:08;;;;;;;5.20;4.70;;;;;;;11.51;87.71;95219.25;108309;1268;36463;-80
2022/09/27 06:51:39;;;;;;;5.30;4.80;;;;;;;12.24;87.63;95217.34;108376;1268;22619;-81
2022/09/27 06:54:10;;;;;;;5.20;4.70;;;;;;;12.82;86.23;95209.27;108380;1268;22626;-80
2022/09/27 06:56:42;;;;;;;6.00;5.30;;;;;;;13.31;84.97;95216.69;108418;1268;22537;-81
2022/09/27 07:02:03;;;;;;;4.80;4.30;;;;;;;14.59;82.79;95207.02;108205;1270;22606;-81
2022/09/27 07:04:35;;;;;;;5.50;4.70;;;;;;;14.89;79.86;95213.02;108249;1270;25869;-81
2022/09/27 07:07:09;;;;;;;5.50;5.00;;;;;;;14.93;78.24;95210.02;108262;1270;24377;-81
2022/09/27 07:09:43;;;;;;;5.60;5.10;;;;;;;15.09;76.99;95211.47;108179;1270;28311;-81
2022/09/27 07:12:14;;;;;;;5.20;4.80;;;;;;;15.11;76.44;95206.11;108266;1269;22574;-81
2022/09/27 07:14:45;;;;;;;4.90;4.50;;;;;;;14.85;75.18;95206.39;108193;1270;22668;-81
2022/09/27 07:17:17;;;;;;;6.10;5.20;;;;;;;14.80;75.73;95211.57;108219;1270;22997;-81
2022/09/27 07:19:49;;;;;;;5.30;4.80;;;;;;;15.48;76.22;95205.14;108215;1268;26653;-80
2022/09/27 07:22:20;;;;;;;5.30;4.80;;;;;;;16.19;74.60;95199.85;108194;1270;22541;-81
2022/09/27 07:24:52;;;;;;;5.70;5.20;;;;;;;16.47;73.88;95192.66;108317;1268;23327;-81
2022/09/27 07:27:24;;;;;;;5.70;5.20;;;;;;;16.42;71.21;95198.73;108223;1270;22688;-81
2022/09/27 07:29:55;;;;;;;5.90;5.40;;;;;;;15.82;70.78;95199.89;108213;1268;43568;-81
2022/09/27 07:32:27;;;;;;;4.90;4.40;;;;;;;15.21;70.26;95200.63;108281;1270;23041;-81
2022/09/27 07:34:58;;;;;;;5.50;5.00;;;;;;;14.98;72.00;95198.12;108297;1270;22556;-81
2022/09/27 07:37:31;;;;;;;5.30;4.80;;;;;;;15.12;71.73;95205.81;108153;1270;22547;-82
2022/09/27 07:40:05;;;;;;;5.90;5.10;;;;;;;14.92;70.72;95207.12;108124;1270;28401;-82
2022/09/27 07:42:40;;;;;;;5.70;5.20;;;;;;;14.84;70.68;95209.27;108338;1268;22534;-82
2022/09/27 07:45:16;;;;;;;5.30;4.80;;;;;;;14.78;71.07;95206.55;108301;1268;22548;-82
2022/09/27 07:47:47;;;;;;;5.50;5.00;;;;;;;14.93;71.03;95202.41;108294;1270;22708;-82
2022/09/27 07:50:19;;;;;;;5.70;4.90;;;;;;;15.22;71.27;95201.66;108269;1268;28148;-82
2022/09/27 07:52:51;;;;;;;5.70;5.00;;;;;;;15.48;70.53;95200.80;108366;1268;24339;-81
2022/09/27 07:55:23;;;;;;;5.70;5.20;;;;;;;15.98;71.94;95193.62;108371;1268;22563;-82
2022/09/27 07:58:01;;;;;;;5.40;4.90;;;;;;;16.96;72.25;95183.65;108300;1268;22560;-82
2022/09/27 08:00:33;;;;;;;4.80;4.30;;;;;;;17.43;68.83;95179.23;108299;1268;24424;-81
2022/09/27 08:03:07;;;;;;;5.00;4.50;;;;;;;17.27;68.02;95177.96;108359;1268;25401;-81
2022/09/27 08:05:38;;;;;;;5.10;4.60;;;;;;;17.68;69.78;95176.98;108337;1268;23403;-81
2022/09/27 08:08:09;;;;;;;4.70;4.20;;;;;;;18.31;68.18;95176.36;108363;1268;25274;-80
2022/09/27 08:10:42;;;;;;;5.50;4.60;;;;;;;18.31;66.43;95172.45;108330;1268;30047;-80
2022/09/27 08:13:16;;;;;;;5.70;4.70;;;;;;;18.00;64.98;95167.33;108392;1268;22773;-80
2022/09/27 08:15:51;;;;;;;5.10;4.50;;;;;;;17.54;65.50;95171.77;108393;1268;22643;-81
2022/09/27 08:18:23;;;;;;;5.50;5.00;;;;;;;17.25;65.44;95169.52;108342;1267;29401;-79
2022/09/27 08:20:58;;;;;;;5.70;5.00;;;;;;;17.36;67.00;95167.56;108394;1267;25898;-81
2022/09/27 08:23:30;;;;;;;5.50;4.80;;;;;;;17.50;66.49;95169.26;108426;1267;22687;-81
2022/09/27 08:26:01;;;;;;;4.90;4.40;;;;;;;17.47;66.90;95165.61;108398;1268;22739;-80
2022/09/27 08:28:33;;;;;;;5.40;4.80;;;;;;;17.70;66.57;95161.80;108284;1267;31725;-81
2022/09/27 08:31:06;;;;;;;5.60;4.60;;;;;;;17.94;66.56;95163.33;108405;1267;22596;-81
2022/09/27 08:33:40;;;;;;;7.70;4.20;;;;;;;18.13;66.57;95161.23;108365;1268;23940;-81
2022/09/27 08:36:14;;;;;;;4.50;4.00;;;;;;;18.05;66.58;95163.27;108378;1268;23896;-81
2022/09/27 08:38:48;;;;;;;5.30;4.30;;;;;;;18.09;66.40;95156.50;108317;1268;31145;-81
2022/09/27 08:41:33;;;;;;;5.70;4.60;;;;;;;18.07;66.34;95159.62;108367;1268;22660;-81
2022/09/27 08:44:13;;;;;;;5.50;4.60;;;;;;;18.20;66.89;95160.33;108400;1268;22535;-82
2022/09/27 08:46:54;;;;;;;5.50;4.90;;;;;;;18.51;66.63;95164.74;108407;1268;22552;-81
2022/09/27 08:49:32;;;;;;;4.90;4.40;;;;;;;18.73;67.61;95161.81;108362;1268;27017;-81
2022/09/27 08:52:08;;;;;;;4.60;4.20;;;;;;;18.88;67.79;95161.02;108398;1267;22542;-81
2022/09/27 08:54:40;;;;;;;5.30;4.60;;;;;;;18.77;67.67;95160.41;108375;1267;22529;-81
2022/09/27 08:57:14;;;;;;;5.60;4.60;;;;;;;18.35;66.75;95161.91;108368;1267;24265;-81
2022/09/27 08:59:49;;;;;;;4.90;4.10;;;;;;;17.90;67.50;95159.59;108295;1268;29342;-81
2022/09/27 09:02:25;;;;;;;6.00;4.60;;;;;;;17.72;68.39;95154.63;108319;1268;22554;-81
2022/09/27 09:05:02;;;;;;;5.10;4.60;;;;;;;17.73;69.13;95153.66;108370;1268;22581;-81
2022/09/27 09:07:48;;;;;;;4.30;3.90;;;;;;;17.65;69.10;95156.20;108343;1268;25299;-82
2022/09/27 09:13:35;;;;;;;4.00;3.50;;;;;;;17.62;69.13;95148.11;108385;1268;22576;-82
2022/09/27 09:16:18;;;;;;;4.30;3.70;;;;;;;17.29;68.90;95141.12;108383;1267;25275;-82
2022/09/27 09:19:03;;;;;;;3.70;3.30;;;;;;;16.95;68.81;95136.30;108294;1267;25031;-82
2022/09/27 09:21:47;;;;;;;5.40;3.70;;;;;;;16.99;70.32;95132.32;108375;1268;22716;-82
2022/09/27 09:24:33;;;;;;;3.90;3.50;;;;;;;17.09;70.03;95129.05;108357;1268;22787;-82
2022/09/27 09:27:13;;;;;;;4.20;3.60;;;;;;;17.05;70.30;95125.77;108329;1267;25338;-82
2022/09/27 09:30:17;;;;;;;3.80;3.10;;;;;;;17.15;71.49;95121.44;108202;1268;29516;-82
2022/09/27 09:33:00;;;;;;;5.40;4.00;;;;;;;17.30;71.36;95120.15;108197;1270;22558;-83
2022/09/27 09:35:39;;;;;;;3.60;3.20;;;;;;;17.36;71.99;95115.30;108257;1270;23194;-82
2022/09/27 09:38:16;;;;;;;3.80;3.40;;;;;;;17.51;70.97;95110.48;108130;1270;22533;-83
2022/09/27 09:40:52;;;;;;;4.00;3.30;;;;;;;17.60;72.32;95100.36;108255;1268;31437;-82
2022/09/27 09:43:31;;;;;;;5.50;3.50;;;;;;;17.80;72.02;95093.80;108186;1270;23844;-83
2022/09/27 09:46:08;;;;;;;4.10;2.90;;;;;;;17.95;71.36;95088.58;108303;1267;22891;-83
2022/09/27 09:48:45;;;;;;;4.60;3.10;;;;;;;17.84;70.04;95082.28;108151;1269;31388;-82
2022/09/27 09:51:22;;;;;;;4.10;2.90;;;;;;;17.87;69.81;95080.48;108218;1270;22556;-83
2022/09/27 09:53:58;;;;;;;5.30;2.90;;;;;;;17.93;69.34;95078.36;108265;1270;25127;-83
2022/09/27 09:56:34;;;;;;;3.70;3.00;;;;;;;17.80;68.30;95073.82;108260;1270;22679;-83
2022/09/27 09:59:15;;;;;;;3.40;2.60;;;;;;;17.88;67.87;95074.46;108178;1270;25796;-82
2022/09/27 10:01:48;;;;;;;3.20;2.50;;;;;;;17.85;66.30;95070.05;108238;1270;22665;-83
2022/09/27 10:04:23;;;;;;;4.30;2.80;;;;;;;17.75;66.10;95072.45;108236;1270;24338;-83
2022/09/27 10:06:57;;;;;;;2.80;2.10;;;;;;;17.81;67.09;95067.09;108227;1270;22544;-82
2022/09/27 10:09:29;;;;;;;2.70;2.20;;;;;;;17.99;66.45;95066.72;108257;1268;29277;-83
2022/09/27 10:12:01;;;;;;;1.50;1.40;;;;;;;18.18;66.27;95061.60;108336;1268;22530;-84
2022/09/27 10:14:33;;;;;;;4.00;1.90;;;;;;;18.43;66.38;95063.81;108321;1268;22575;-83
2022/09/27 10:17:10;;;;;;;1.80;1.50;;;;;;;18.61;65.76;95062.41;108326;1268;23164;-84
2022/09/27 10:19:42;;;;;;;1.70;1.50;;;;;;;18.83;65.61;95063.59;108228;1268;30142;-84
2022/09/27 10:22:21;;;;;;;1.80;1.70;;;;;;;18.99;65.53;95060.45;108328;1268;23347;-84
2022/09/27 10:25:00;;;;;;;2.50;1.70;;;;;;;19.17;65.21;95057.46;108333;1268;22544;-84
2022/09/27 10:27:41;;;;;;;3.40;2.50;;;;;;;19.28;64.81;95051.73;108264;1270;22718;-84
2022/09/27 10:30:26;;;;;;;3.60;2.90;;;;;;;19.20;63.93;95051.05;108239;1268;34664;-84
2022/09/27 10:33:00;;;;;;;2.70;2.50;;;;;;;19.34;64.88;95046.16;108309;1268;22741;-84
2022/09/27 10:35:45;;;;;;;2.60;2.20;;;;;;;19.48;64.59;95036.14;108369;1268;22531;-84
2022/09/27 10:38:27;;;;;;;3.30;2.70;;;;;;;19.36;63.85;95038.82;108283;1270;23074;-84
2022/09/27 10:41:22;;;;;;;3.20;2.50;;;;;;;19.40;64.86;95042.38;108298;1268;23369;-84
2022/09/27 10:43:53;;;;;;;2.50;2.20;;;;;;;19.15;61.03;95045.63;108328;1268;23221;-84
2022/09/27 10:46:30;;;;;;;2.70;2.30;;;;;;;18.55;61.32;95039.73;108327;1268;22563;-84
2022/09/27 10:49:22;;;;;;;3.40;2.40;;;;;;;18.10;61.78;95038.36;108245;1268;40912;-84
2022/09/27 10:51:55;;;;;;;2.50;1.90;;;;;;;17.95;62.94;95031.80;108261;1270;23366;-84
2022/09/27 10:54:30;;;;;;;4.30;2.40;;;;;;;18.06;62.77;95025.97;108188;1269;23357;-84
2022/09/27 10:57:04;;;;;;;2.90;2.30;;;;;;;18.12;62.38;95027.95;108318;1268;22549;-84
2022/09/27 10:59:40;;;;;;;2.50;2.20;;;;;;;18.13;62.95;95026.05;108264;1268;26476;-85
2022/09/27 11:02:23;;;;;;;3.10;2.00;;;;;;;18.13;62.72;95023.13;108212;1270;22540;-84
2022/09/27 11:05:12;;;;;;;2.30;2.10;;;;;;;18.16;62.72;95018.89;108249;1270;22582;-84
2022/09/27 11:07:52;;;;;;;2.00;1.80;;;;;;;17.92;61.04;95015.44;108409;1268;25371;-84
2022/09/27 11:10:27;;;;;;;2.50;2.20;;;;;;;17.66;61.10;95015.23;108223;1268;29110;-83
2022/09/27 11:13:13;;;;;;;2.20;1.90;;;;;;;17.47;61.29;95011.67;108316;1268;22559;-83
2022/09/27 11:16:08;;;;;;;3.50;2.40;;;;;;;17.17;60.99;95010.30;108280;1270;22950;-83
2022/09/27 11:18:47;;;;;;;2.50;2.20;;;;;;;16.94;62.03;95005.04;108262;1268;24338;-83
2022/09/27 11:21:30;;;;;;;3.30;2.10;;;;;;;16.82;62.02;95004.54;108314;1268;22609;-83
2022/09/27 11:24:21;;;;;;;2.50;2.20;;;;;;;16.88;62.90;95005.77;108378;1268;22611;-84
2022/09/27 11:27:04;;;;;;;2.40;2.00;;;;;;;17.21;62.88;95004.01;108316;1268;22618;-84
2022/09/27 11:29:49;;;;;;;2.60;1.90;;;;;;;17.11;61.72;95001.86;108178;1270;31316;-84
2022/09/27 11:32:33;;;;;;;3.90;2.20;;;;;;;16.98;61.58;95001.64;108314;1270;22565;-83
2022/09/27 11:35:32;;;;;;;2.40;1.80;;;;;;;17.11;62.95;95001.18;108281;1270;22842;-84
2022/09/27 11:38:17;;;;;;;2.00;1.80;;;;;;;17.37;62.94;94996.98;108203;1270;22843;-84
2022/09/27 11:41:02;;;;;;;1.80;1.60;;;;;;;17.40;62.10;95000.08;108213;1270;26319;-84
2022/09/27 11:43:46;;;;;;;2.10;1.90;;;;;;;17.44;63.28;94995.55;108185;1268;24242;-84
2022/09/27 11:46:28;;;;;;;2.30;2.10;;;;;;;17.48;61.48;94994.08;108229;1270;25403;-84
2022/09/27 11:49:21;;;;;;;1.70;1.60;;;;;;;17.40;62.21;94992.13;108237;1268;28616;-84
2022/09/27 11:52:18;;;;;;;2.20;1.80;;;;;;;17.50;61.30;94987.90;108391;1267;25322;-84
2022/09/27 11:55:03;;;;;;;2.10;1.80;;;;;;;17.47;62.02;94986.65;108362;1267;22545;-84
2022/09/27 11:57:42;;;;;;;3.80;2.20;;;;;;;17.40;61.11;94979.19;108356;1267;24971;-84
2022/09/27 12:00:25;;;;;;;2.20;2.00;;;;;;;17.26;61.34;94978.52;108320;1267;29043;-84
2022/09/27 12:03:17;;;;;;;1.70;1.60;;;;;;;17.33;62.56;94975.56;108391;1267;23197;-84
2022/09/27 12:06:02;;;;;;;1.90;1.70;;;;;;;17.45;61.86;94971.45;108370;1265;22693;-83
2022/09/27 12:08:53;;;;;;;1.90;1.70;;;;;;;17.34;60.93;94974.52;108267;1268;25225;-83
2022/09/27 12:11:30;;;;;;;3.80;1.50;;;;;;;17.34;61.61;94970.69;108344;1268;24255;-83
2022/09/27 12:16:57;;;;;;;2.90;1.90;;;;;;;17.37;61.61;94956.27;108315;1267;22798;-83